createdAt,value
2019-03-15T00:01:06.847Z,64.10
2019-03-15T00:02:42.242Z,64.00
2019-03-15T00:04:17.651Z,63.70
2019-03-15T00:05:54.200Z,64.30
2019-03-15T00:07:29.582Z,63.40
2019-03-15T00:09:08.378Z,63.30
2019-03-15T00:10:45.582Z,63.40
2019-03-15T00:12:21.566Z,63.30
2019-03-15T00:13:56.918Z,63.30
2019-03-15T00:15:32.295Z,63.10
2019-03-15T00:17:07.682Z,63.00
2019-03-15T00:18:43.371Z,63.10
2019-03-15T00:20:18.766Z,63.10
2019-03-15T00:21:54.162Z,63.00
2019-03-15T00:23:29.537Z,63.10
2019-03-15T00:25:06.547Z,63.20
2019-03-15T00:26:41.932Z,64.00
2019-03-15T00:28:17.309Z,63.50
2019-03-15T00:29:52.705Z,63.60
2019-03-15T00:31:28.079Z,63.90
2019-03-15T00:33:03.720Z,64.00
2019-03-15T00:34:39.118Z,64.10
2019-03-15T00:36:15.653Z,64.20
2019-03-15T00:37:51.018Z,64.30
2019-03-15T00:39:26.407Z,64.40
2019-03-15T00:41:01.775Z,64.50
2019-03-15T00:42:37.155Z,64.40
2019-03-15T00:44:12.543Z,64.50
2019-03-15T00:45:47.921Z,64.40
2019-03-15T00:47:23.571Z,64.50
2019-03-15T00:48:58.952Z,64.40
2019-03-15T00:50:34.350Z,64.40
2019-03-15T00:52:09.735Z,64.30
2019-03-15T00:53:45.839Z,64.40
2019-03-15T00:55:21.225Z,64.40
2019-03-15T00:56:56.610Z,64.20
2019-03-15T00:58:32.085Z,64.00
2019-03-15T01:00:18.386Z,63.80
2019-03-15T01:01:53.760Z,63.80
2019-03-15T01:03:29.146Z,63.80
2019-03-15T01:05:05.446Z,64.00
2019-03-15T01:06:40.851Z,63.90
2019-03-15T01:08:16.219Z,63.90
2019-03-15T01:09:51.618Z,63.90
2019-03-15T01:11:26.993Z,63.80
2019-03-15T01:13:02.389Z,63.80
2019-03-15T01:14:37.763Z,63.70
2019-03-15T01:16:13.155Z,63.60
2019-03-15T01:17:48.537Z,63.50
2019-03-15T01:19:24.654Z,63.50
2019-03-15T01:21:00.082Z,63.50
2019-03-15T01:22:35.441Z,63.50
2019-03-15T01:24:10.828Z,63.40
2019-03-15T01:25:46.353Z,63.30
2019-03-15T01:27:21.737Z,63.30
2019-03-15T01:28:57.089Z,63.40
2019-03-15T01:30:32.474Z,63.40
2019-03-15T01:32:07.850Z,63.30
2019-03-15T01:33:43.231Z,63.10
2019-03-15T01:35:18.616Z,63.10
2019-03-15T01:36:54.661Z,63.00
2019-03-15T01:38:30.074Z,63.00
2019-03-15T01:40:07.769Z,62.90
2019-03-15T01:41:43.169Z,63.70
2019-03-15T01:43:18.536Z,63.00
2019-03-15T01:44:54.731Z,63.00
2019-03-15T01:46:30.121Z,63.00
2019-03-15T01:48:05.503Z,62.90
2019-03-15T01:49:40.884Z,62.80
2019-03-15T01:51:16.284Z,62.80
2019-03-15T01:52:51.678Z,62.70
2019-03-15T01:54:28.057Z,62.70
2019-03-15T01:56:03.449Z,62.70
2019-03-15T01:57:38.871Z,62.80
2019-03-15T01:59:14.246Z,63.00
2019-03-15T02:00:49.642Z,62.80
2019-03-15T02:02:25.020Z,62.80
2019-03-15T02:04:00.405Z,62.80
2019-03-15T02:05:35.803Z,62.80
2019-03-15T02:07:11.197Z,62.80
2019-03-15T02:08:46.573Z,62.80
2019-03-15T02:10:22.575Z,62.80
2019-03-15T02:11:59.098Z,62.80
2019-03-15T02:13:34.486Z,62.90
2019-03-15T02:15:12.653Z,62.90
2019-03-15T02:16:48.028Z,63.00
2019-03-15T02:18:23.413Z,63.20
2019-03-15T02:19:58.813Z,63.00
2019-03-15T02:21:34.202Z,62.90
2019-03-15T02:23:09.579Z,62.90
2019-03-15T02:24:44.956Z,62.80
2019-03-15T02:26:20.353Z,62.80
2019-03-15T02:27:55.829Z,62.70
2019-03-15T02:29:31.225Z,63.50
2019-03-15T02:31:06.619Z,62.70
2019-03-15T02:32:42.008Z,62.50
2019-03-15T02:34:17.400Z,62.20
2019-03-15T02:35:53.764Z,62.10
2019-03-15T02:37:29.153Z,61.80
2019-03-15T02:39:06.363Z,61.50
2019-03-15T02:40:41.755Z,61.40
2019-03-15T02:42:18.144Z,61.30
2019-03-15T02:43:53.510Z,61.30
2019-03-15T02:45:28.905Z,61.20
2019-03-15T02:47:04.298Z,61.10
2019-03-15T02:48:40.736Z,61.10
2019-03-15T02:50:16.346Z,61.10
2019-03-15T02:51:51.737Z,61.10
2019-03-15T02:53:27.119Z,61.00
2019-03-15T02:55:02.546Z,61.00
2019-03-15T02:56:37.943Z,61.00
2019-03-15T02:58:13.324Z,61.20
2019-03-15T02:59:48.699Z,61.00
2019-03-15T03:01:24.087Z,61.20
2019-03-15T03:02:59.477Z,61.10
2019-03-15T03:04:35.116Z,61.20
2019-03-15T03:06:10.533Z,61.20
2019-03-15T03:07:45.914Z,61.10
2019-03-15T03:09:21.301Z,61.00
2019-03-15T03:10:56.688Z,60.90
2019-03-15T03:12:32.088Z,60.90
2019-03-15T03:14:07.461Z,61.00
2019-03-15T03:15:42.851Z,60.90
2019-03-15T03:17:18.235Z,60.80
2019-03-15T03:18:53.608Z,60.80
2019-03-15T03:20:29.031Z,60.60
2019-03-15T03:22:04.413Z,60.50
2019-03-15T03:23:39.804Z,60.50
2019-03-15T03:25:17.255Z,61.20
2019-03-15T03:26:52.929Z,60.30
2019-03-15T03:28:28.332Z,60.30
2019-03-15T03:30:04.285Z,60.30
2019-03-15T03:31:40.738Z,60.30
2019-03-15T03:33:16.190Z,60.20
2019-03-15T03:34:51.559Z,60.10
2019-03-15T03:36:26.977Z,59.90
2019-03-15T03:38:02.375Z,60.10
2019-03-15T03:39:37.774Z,59.90
2019-03-15T03:41:13.404Z,59.90
2019-03-15T03:42:48.798Z,59.90
2019-03-15T03:44:24.182Z,59.70
2019-03-15T03:45:59.566Z,59.70
2019-03-15T03:47:34.946Z,59.70
2019-03-15T03:49:10.334Z,59.70
2019-03-15T03:50:46.413Z,59.70
2019-03-15T03:52:22.071Z,59.60
2019-03-15T03:53:57.447Z,59.60
2019-03-15T03:55:32.828Z,59.50
2019-03-15T03:57:08.236Z,59.50
2019-03-15T03:59:02.954Z,59.50
2019-03-15T04:00:38.342Z,59.30
2019-03-15T04:02:14.006Z,59.50
2019-03-15T04:03:49.391Z,59.40
2019-03-15T04:05:24.787Z,59.50
2019-03-15T04:07:00.183Z,59.50
2019-03-15T04:08:35.564Z,59.40
2019-03-15T04:10:13.286Z,59.40
2019-03-15T04:11:55.304Z,59.40
2019-03-15T04:13:25.759Z,59.30
2019-03-15T04:15:01.142Z,59.40
2019-03-15T04:16:36.531Z,59.30
2019-03-15T04:18:12.443Z,59.40
2019-03-15T04:19:47.832Z,59.40
2019-03-15T04:21:23.228Z,59.30
2019-03-15T04:22:58.604Z,59.30
2019-03-15T04:24:33.991Z,59.30
2019-03-15T04:26:09.711Z,59.40
2019-03-15T04:27:45.071Z,59.40
2019-03-15T04:29:20.447Z,59.40
2019-03-15T04:30:55.844Z,59.30
2019-03-15T04:32:31.224Z,59.30
2019-03-15T04:34:06.602Z,59.20
2019-03-15T04:35:42.531Z,59.10
2019-03-15T04:37:17.922Z,58.90
2019-03-15T04:38:53.357Z,58.90
2019-03-15T04:40:28.744Z,58.80
2019-03-15T04:42:04.140Z,58.90
2019-03-15T04:43:39.520Z,58.90
2019-03-15T04:45:14.899Z,58.90
2019-03-15T04:46:50.580Z,58.80
2019-03-15T04:48:26.200Z,58.70
2019-03-15T04:50:01.654Z,58.70
2019-03-15T04:51:37.040Z,58.70
2019-03-15T04:53:12.723Z,58.70
2019-03-15T04:54:48.094Z,58.80
2019-03-15T04:56:23.488Z,58.80
2019-03-15T04:57:58.869Z,58.90
2019-03-15T04:59:34.580Z,58.90
2019-03-15T05:01:09.966Z,59.00
2019-03-15T05:02:45.356Z,58.90
2019-03-15T05:04:20.745Z,58.90
2019-03-15T05:06:03.073Z,58.80
2019-03-15T05:07:33.205Z,58.80
2019-03-15T05:09:08.584Z,58.90
2019-03-15T05:10:43.966Z,58.90
2019-03-15T05:12:20.330Z,58.90
2019-03-15T05:13:58.649Z,58.80
2019-03-15T05:15:32.793Z,58.70
2019-03-15T05:17:08.489Z,58.80
2019-03-15T05:18:43.995Z,58.80
2019-03-15T05:20:21.123Z,59.00
2019-03-15T05:21:56.545Z,58.90
2019-03-15T05:23:31.934Z,58.90
2019-03-15T05:25:08.642Z,59.00
2019-03-15T05:26:44.160Z,58.90
2019-03-15T05:28:19.536Z,58.90
2019-03-15T05:29:54.920Z,58.90
2019-03-15T05:31:30.310Z,59.10
2019-03-15T05:33:05.684Z,59.00
2019-03-15T05:34:41.388Z,59.00
2019-03-15T05:36:16.885Z,58.80
2019-03-15T05:37:52.266Z,59.00
2019-03-15T05:39:27.625Z,58.90
2019-03-15T05:41:03.014Z,58.90
2019-03-15T05:42:38.759Z,58.80
2019-03-15T05:44:14.136Z,58.80
2019-03-15T05:45:49.518Z,58.70
2019-03-15T05:47:24.915Z,58.70
2019-03-15T05:49:00.543Z,58.60
2019-03-15T05:50:36.734Z,58.50
2019-03-15T05:52:12.122Z,58.60
2019-03-15T05:53:47.508Z,58.50
2019-03-15T05:55:22.891Z,58.60
2019-03-15T05:56:58.285Z,58.40
2019-03-15T05:58:33.669Z,58.50
2019-03-15T06:00:15.508Z,58.40
2019-03-15T06:01:50.894Z,58.50
2019-03-15T06:03:26.611Z,58.50
2019-03-15T06:05:02.975Z,58.40
2019-03-15T06:06:38.359Z,58.40
2019-03-15T06:08:13.748Z,58.20
2019-03-15T06:09:49.145Z,58.30
2019-03-15T06:11:24.526Z,58.40
2019-03-15T06:12:59.920Z,58.20
2019-03-15T06:14:35.371Z,58.30
2019-03-15T06:16:10.757Z,58.30
2019-03-15T06:17:46.144Z,58.40
2019-03-15T06:19:21.529Z,58.40
2019-03-15T06:20:56.920Z,58.40
2019-03-15T06:22:32.309Z,58.40
2019-03-15T06:24:07.690Z,58.40
2019-03-15T06:25:43.075Z,58.30
2019-03-15T06:27:18.471Z,58.30
2019-03-15T06:28:53.844Z,58.30
2019-03-15T06:30:29.219Z,58.30
2019-03-15T06:32:04.598Z,58.20
2019-03-15T06:33:39.980Z,58.10
2019-03-15T06:35:15.420Z,58.10
2019-03-15T06:36:50.794Z,58.00
2019-03-15T06:38:26.169Z,58.00
2019-03-15T06:40:01.614Z,58.10
2019-03-15T06:41:37.322Z,58.10
2019-03-15T06:43:13.477Z,58.30
2019-03-15T06:44:57.892Z,58.30
2019-03-15T06:46:27.396Z,58.20
2019-03-15T06:48:03.756Z,58.20
2019-03-15T06:49:39.138Z,58.20
2019-03-15T06:51:14.519Z,58.50
2019-03-15T06:52:49.972Z,58.60
2019-03-15T06:54:25.354Z,58.50
2019-03-15T06:56:00.731Z,58.60
2019-03-15T06:57:37.263Z,58.30
2019-03-15T06:59:12.624Z,58.30
2019-03-15T07:00:48.004Z,58.00
2019-03-15T07:02:23.716Z,58.00
2019-03-15T07:03:59.098Z,57.80
2019-03-15T07:05:34.491Z,57.40
2019-03-15T07:07:10.529Z,57.20
2019-03-15T07:08:46.033Z,57.00
2019-03-15T07:10:21.413Z,56.80
2019-03-15T07:12:08.829Z,56.40
2019-03-15T07:13:34.094Z,56.00
2019-03-15T07:15:14.134Z,55.90
2019-03-15T07:16:49.512Z,55.60
2019-03-15T07:18:25.149Z,55.30
2019-03-15T07:20:00.798Z,55.10
2019-03-15T07:21:36.902Z,54.80
2019-03-15T07:23:12.434Z,54.50
2019-03-15T07:24:47.832Z,54.40
2019-03-15T07:26:23.188Z,54.30
2019-03-15T07:27:58.582Z,54.30
2019-03-15T07:29:35.079Z,54.20
2019-03-15T07:31:10.459Z,54.10
2019-03-15T07:32:45.916Z,54.10
2019-03-15T07:34:21.296Z,54.10
2019-03-15T07:35:56.707Z,54.20
2019-03-15T07:37:32.162Z,54.20
2019-03-15T07:39:08.246Z,54.20
2019-03-15T07:40:43.626Z,54.30
2019-03-15T07:42:19.001Z,54.40
2019-03-15T07:43:54.386Z,54.60
2019-03-15T07:45:29.758Z,54.70
2019-03-15T07:47:05.759Z,54.70
2019-03-15T07:48:41.146Z,54.50
2019-03-15T07:50:16.889Z,54.30
2019-03-15T07:51:52.258Z,54.10
2019-03-15T07:53:27.640Z,54.00
2019-03-15T07:55:03.093Z,53.80
2019-03-15T07:56:38.467Z,53.70
2019-03-15T07:58:13.855Z,53.60
2019-03-15T07:59:49.578Z,53.50
2019-03-15T08:01:24.962Z,53.30
2019-03-15T08:03:00.346Z,53.10
2019-03-15T08:04:36.188Z,53.10
2019-03-15T08:06:11.573Z,53.00
2019-03-15T08:07:46.970Z,52.90
2019-03-15T08:09:22.346Z,52.90
2019-03-15T08:10:57.724Z,53.00
2019-03-15T08:12:33.101Z,53.20
2019-03-15T08:14:08.484Z,53.30
2019-03-15T08:15:44.151Z,53.40
2019-03-15T08:17:20.602Z,53.20
2019-03-15T08:18:56.258Z,52.90
2019-03-15T08:20:32.606Z,53.00
2019-03-15T08:22:07.983Z,53.20
2019-03-15T08:23:43.369Z,53.40
2019-03-15T08:25:18.743Z,53.70
2019-03-15T08:26:54.471Z,53.40
2019-03-15T08:28:29.853Z,53.10
2019-03-15T08:30:14.945Z,52.70
2019-03-15T08:31:50.324Z,52.60
2019-03-15T08:33:25.704Z,52.50
2019-03-15T08:35:03.983Z,52.30
2019-03-15T08:36:38.151Z,51.90
2019-03-15T08:38:13.535Z,51.60
2019-03-15T08:39:48.917Z,51.20
2019-03-15T08:41:24.291Z,51.20
2019-03-15T08:42:59.670Z,51.20
2019-03-15T08:44:35.045Z,51.00
2019-03-15T08:46:10.421Z,51.00
2019-03-15T08:47:45.804Z,50.90
2019-03-15T08:49:21.191Z,50.70
2019-03-15T08:50:56.562Z,50.70
2019-03-15T08:52:33.070Z,50.70
2019-03-15T08:54:08.459Z,50.70
2019-03-15T08:55:43.839Z,50.70
2019-03-15T08:57:19.224Z,50.50
2019-03-15T08:58:54.612Z,50.40
2019-03-15T09:00:29.982Z,50.40
2019-03-15T09:02:05.360Z,50.50
2019-03-15T09:03:40.823Z,50.50
2019-03-15T09:05:17.202Z,51.20
2019-03-15T09:06:52.578Z,51.10
2019-03-15T09:08:27.963Z,50.50
2019-03-15T09:10:04.303Z,50.50
2019-03-15T09:11:39.684Z,50.60
2019-03-15T09:13:15.061Z,50.50
2019-03-15T09:14:51.422Z,50.50
2019-03-15T09:16:26.803Z,50.60
2019-03-15T09:18:02.195Z,50.70
2019-03-15T09:19:37.575Z,50.70
2019-03-15T09:21:12.951Z,50.50
2019-03-15T09:22:48.347Z,49.90
2019-03-15T09:24:23.720Z,49.80
2019-03-15T09:25:59.093Z,49.40
2019-03-15T09:27:34.471Z,49.10
2019-03-15T09:29:09.863Z,49.70
2019-03-15T09:30:45.234Z,48.90
2019-03-15T09:32:20.609Z,48.70
2019-03-15T09:33:56.004Z,48.60
2019-03-15T09:35:31.380Z,48.60
2019-03-15T09:37:06.756Z,48.60
2019-03-15T09:38:42.143Z,49.00
2019-03-15T09:40:17.886Z,48.50
2019-03-15T09:41:53.263Z,48.60
2019-03-15T09:43:28.656Z,48.40
2019-03-15T09:45:05.171Z,48.00
2019-03-15T09:46:40.582Z,47.80
2019-03-15T09:48:15.926Z,47.70
2019-03-15T09:49:51.313Z,47.40
2019-03-15T09:51:26.682Z,47.20
2019-03-15T09:53:02.056Z,47.30
2019-03-15T09:54:37.449Z,47.30
2019-03-15T09:56:12.823Z,47.40
2019-03-15T09:57:48.198Z,47.50
2019-03-15T09:59:23.582Z,47.60
2019-03-15T10:00:59.132Z,47.90
2019-03-15T10:02:37.099Z,47.70
2019-03-15T10:04:12.459Z,47.70
2019-03-15T10:05:47.832Z,47.60
2019-03-15T10:07:37.450Z,47.00
2019-03-15T10:09:00.435Z,46.70
2019-03-15T10:10:35.798Z,47.10
2019-03-15T10:12:12.142Z,47.10
2019-03-15T10:13:47.533Z,47.00
2019-03-15T10:15:26.166Z,46.80
2019-03-15T10:17:00.305Z,46.60
2019-03-15T10:18:35.684Z,46.80
2019-03-15T10:20:13.026Z,46.50
2019-03-15T10:21:48.445Z,46.40
2019-03-15T10:23:23.825Z,46.40
2019-03-15T10:24:59.538Z,46.30
2019-03-15T10:26:35.171Z,46.40
2019-03-15T10:28:10.552Z,46.20
2019-03-15T10:29:45.948Z,46.10
2019-03-15T10:31:21.327Z,46.00
2019-03-15T10:32:57.035Z,46.20
2019-03-15T10:34:35.545Z,46.30
2019-03-15T10:36:09.829Z,46.10
2019-03-15T10:37:45.206Z,45.90
2019-03-15T10:39:20.593Z,45.70
2019-03-15T10:40:56.264Z,46.00
2019-03-15T10:42:31.645Z,45.80
2019-03-15T10:44:07.287Z,45.60
2019-03-15T10:45:42.665Z,45.50
2019-03-15T10:47:18.321Z,45.20
2019-03-15T10:48:53.695Z,44.80
2019-03-15T10:50:29.351Z,44.50
2019-03-15T10:52:04.728Z,44.30
2019-03-15T10:53:40.111Z,44.30
2019-03-15T10:55:15.640Z,44.20
2019-03-15T10:56:51.015Z,43.80
2019-03-15T10:58:26.398Z,44.00
2019-03-15T11:00:02.143Z,44.10
2019-03-15T11:01:37.505Z,44.40
2019-03-15T11:03:13.294Z,44.50
2019-03-15T11:04:48.684Z,44.70
2019-03-15T11:06:24.059Z,44.80
2019-03-15T11:07:59.443Z,44.80
2019-03-15T11:09:34.829Z,45.10
2019-03-15T11:11:10.205Z,45.00
2019-03-15T11:12:45.585Z,45.00
2019-03-15T11:14:20.978Z,45.40
2019-03-15T11:15:56.355Z,45.70
2019-03-15T11:17:31.981Z,45.90
2019-03-15T11:19:07.422Z,45.80
2019-03-15T11:20:42.860Z,46.00
2019-03-15T11:22:18.235Z,46.00
2019-03-15T11:23:53.611Z,46.20
2019-03-15T11:25:29.098Z,46.10
2019-03-15T11:27:04.723Z,46.10
2019-03-15T11:28:40.101Z,46.10
2019-03-15T11:30:16.022Z,46.30
2019-03-15T11:31:51.683Z,46.00
2019-03-15T11:33:27.426Z,45.40
2019-03-15T11:35:02.822Z,45.30
2019-03-15T11:36:38.193Z,45.70
2019-03-15T11:38:13.575Z,45.60
2019-03-15T11:39:48.950Z,45.10
2019-03-15T11:41:24.333Z,44.90
2019-03-15T11:43:00.045Z,45.00
2019-03-15T11:44:35.664Z,45.40
2019-03-15T11:46:11.037Z,45.60
2019-03-15T11:48:02.818Z,46.30
2019-03-15T11:49:23.487Z,45.40
2019-03-15T11:50:58.877Z,46.50
2019-03-15T11:52:34.513Z,46.90
2019-03-15T11:54:09.896Z,47.10
2019-03-15T11:55:45.283Z,47.00
2019-03-15T11:57:20.660Z,47.10
2019-03-15T11:58:56.039Z,47.10
2019-03-15T12:00:31.698Z,46.90
2019-03-15T12:02:10.593Z,46.90
2019-03-15T12:03:53.053Z,47.20
2019-03-15T12:05:22.156Z,47.30
2019-03-15T12:06:57.531Z,47.20
2019-03-15T12:08:32.908Z,47.10
2019-03-15T12:10:13.039Z,47.00
2019-03-15T12:11:48.504Z,47.10
2019-03-15T12:13:23.872Z,47.20
2019-03-15T12:14:59.265Z,47.00
2019-03-15T12:16:34.636Z,47.30
2019-03-15T12:18:10.014Z,47.30
2019-03-15T12:19:45.396Z,47.20
2019-03-15T12:21:21.084Z,47.50
2019-03-15T12:22:56.469Z,48.20
2019-03-15T12:24:31.843Z,47.70
2019-03-15T12:26:10.047Z,47.80
2019-03-15T12:27:45.615Z,48.00
2019-03-15T12:29:21.000Z,48.10
2019-03-15T12:30:56.383Z,48.80
2019-03-15T12:32:32.115Z,48.40
2019-03-15T12:34:08.621Z,48.60
2019-03-15T12:35:44.010Z,48.90
2019-03-15T12:37:19.384Z,49.10
2019-03-15T12:38:54.763Z,49.30
2019-03-15T12:40:30.151Z,49.60
2019-03-15T12:42:06.498Z,49.80
2019-03-15T12:43:41.874Z,49.90
2019-03-15T12:45:17.260Z,50.30
2019-03-15T12:46:53.614Z,50.40
2019-03-15T12:48:29.173Z,50.60
2019-03-15T12:50:07.468Z,50.80
2019-03-15T12:51:42.850Z,50.90
2019-03-15T12:53:18.229Z,51.40
2019-03-15T12:54:53.631Z,51.60
2019-03-15T12:56:29.013Z,51.90
2019-03-15T12:58:04.392Z,52.00
2019-03-15T12:59:40.550Z,52.10
2019-03-15T13:01:15.936Z,52.20
2019-03-15T13:02:51.316Z,52.40
2019-03-15T13:04:26.695Z,52.60
2019-03-15T13:06:02.081Z,52.70
2019-03-15T13:07:37.458Z,53.00
2019-03-15T13:09:13.102Z,53.10
2019-03-15T13:10:48.856Z,53.20
2019-03-15T13:12:24.221Z,53.10
2019-03-15T13:13:59.603Z,53.40
2019-03-15T13:15:35.004Z,53.30
2019-03-15T13:17:10.379Z,53.50
2019-03-15T13:18:45.759Z,53.60
2019-03-15T13:20:21.154Z,53.70
2019-03-15T13:21:56.525Z,53.90
2019-03-15T13:23:31.904Z,53.70
2019-03-15T13:25:10.185Z,53.80
2019-03-15T13:26:45.570Z,53.90
2019-03-15T13:28:20.951Z,54.00
2019-03-15T13:29:56.323Z,54.00
2019-03-15T13:31:31.708Z,54.00
2019-03-15T13:33:19.575Z,54.00
2019-03-15T13:34:44.159Z,54.10
2019-03-15T13:36:19.546Z,54.10
2019-03-15T13:37:54.918Z,54.00
2019-03-15T13:39:30.300Z,54.00
2019-03-15T13:41:05.767Z,54.00
2019-03-15T13:42:41.293Z,54.00
2019-03-15T13:44:16.664Z,54.10
2019-03-15T13:45:53.185Z,54.20
2019-03-15T13:47:28.556Z,54.30
2019-03-15T13:49:03.932Z,54.30
2019-03-15T13:50:39.319Z,54.50
2019-03-15T13:52:14.695Z,54.60
2019-03-15T13:53:50.069Z,54.80
2019-03-15T13:55:25.467Z,54.90
2019-03-15T13:57:00.844Z,55.00
2019-03-15T13:58:36.473Z,55.00
2019-03-15T14:00:17.060Z,55.20
2019-03-15T14:01:53.573Z,55.30
2019-03-15T14:03:28.947Z,55.40
2019-03-15T14:05:05.179Z,55.40
2019-03-15T14:06:40.581Z,55.80
2019-03-15T14:08:15.933Z,55.90
2019-03-15T14:09:51.309Z,56.10
2019-03-15T14:11:26.690Z,56.30
2019-03-15T14:13:02.064Z,56.50
2019-03-15T14:14:37.449Z,56.50
2019-03-15T14:16:12.827Z,56.50
2019-03-15T14:17:48.204Z,56.60
2019-03-15T14:19:24.258Z,57.00
2019-03-15T14:20:59.640Z,57.10
2019-03-15T14:22:35.011Z,57.10
2019-03-15T14:24:10.392Z,57.10
2019-03-15T14:25:45.758Z,57.40
2019-03-15T14:27:32.575Z,57.40
2019-03-15T14:28:58.216Z,57.50
2019-03-15T14:30:33.913Z,57.60
2019-03-15T14:32:09.300Z,57.80
2019-03-15T14:33:44.678Z,57.80
2019-03-15T14:35:20.059Z,57.90
2019-03-15T14:36:55.459Z,58.00
2019-03-15T14:38:30.914Z,58.10
2019-03-15T14:40:11.752Z,58.20
2019-03-15T14:41:47.405Z,58.90
2019-03-15T14:43:23.047Z,58.50
2019-03-15T14:44:58.621Z,58.70
2019-03-15T14:46:33.975Z,58.80
2019-03-15T14:48:09.344Z,59.00
2019-03-15T14:49:44.731Z,59.10
2019-03-15T14:51:20.104Z,59.10
2019-03-15T14:52:55.758Z,59.20
2019-03-15T14:54:31.139Z,59.60
2019-03-15T14:56:06.523Z,59.60
2019-03-15T14:57:52.185Z,59.80
2019-03-15T14:59:18.985Z,60.00
2019-03-15T15:00:54.880Z,60.20
2019-03-15T15:02:30.258Z,60.30
2019-03-15T15:04:05.639Z,60.50
2019-03-15T15:05:41.020Z,60.70
2019-03-15T15:07:16.402Z,60.70
2019-03-15T15:08:51.775Z,60.80
2019-03-15T15:10:27.160Z,61.00
2019-03-15T15:12:02.543Z,61.30
2019-03-15T15:13:37.950Z,61.40
2019-03-15T15:15:21.573Z,61.70
2019-03-15T15:16:56.956Z,61.90
2019-03-15T15:18:32.334Z,62.10
2019-03-15T15:20:10.221Z,62.40
2019-03-15T15:21:45.593Z,62.60
2019-03-15T15:23:20.975Z,62.60
2019-03-15T15:24:56.350Z,63.50
2019-03-15T15:26:31.730Z,63.10
2019-03-15T15:28:07.374Z,63.10
2019-03-15T15:29:42.789Z,63.40
2019-03-15T15:31:18.409Z,63.40
2019-03-15T15:32:53.799Z,63.40
2019-03-15T15:34:29.180Z,63.60
2019-03-15T15:36:04.563Z,63.60
2019-03-15T15:37:39.967Z,63.60
2019-03-15T15:39:15.337Z,63.90
2019-03-15T15:40:50.715Z,64.10
2019-03-15T15:42:26.105Z,64.30
2019-03-15T15:44:01.479Z,64.50
2019-03-15T15:45:36.869Z,64.60
2019-03-15T15:47:12.600Z,64.50
2019-03-15T15:48:48.180Z,64.50
2019-03-15T15:50:23.909Z,64.40
2019-03-15T15:51:59.632Z,64.60
2019-03-15T15:53:35.022Z,64.50
2019-03-15T15:55:16.117Z,64.20
2019-03-15T15:56:51.490Z,64.20
2019-03-15T15:58:26.875Z,64.10
2019-03-15T16:00:02.558Z,64.20
2019-03-15T16:01:37.935Z,64.20
2019-03-15T16:03:13.318Z,64.10
2019-03-15T16:04:48.691Z,64.00
2019-03-15T16:06:24.070Z,64.10
2019-03-15T16:07:59.453Z,64.10
2019-03-15T16:09:34.826Z,64.10
2019-03-15T16:11:10.505Z,64.20
2019-03-15T16:12:45.907Z,64.20
2019-03-15T16:14:21.280Z,64.10
2019-03-15T16:15:56.658Z,64.10
2019-03-15T16:17:32.047Z,64.00
2019-03-15T16:19:07.538Z,64.00
2019-03-15T16:20:42.877Z,64.00
2019-03-15T16:22:18.260Z,64.30
2019-03-15T16:23:53.643Z,64.20
2019-03-15T16:25:29.015Z,64.20
2019-03-15T16:27:04.473Z,64.20
2019-03-15T16:28:39.855Z,64.20
2019-03-15T16:30:20.665Z,64.20
2019-03-15T16:31:56.042Z,64.20
2019-03-15T16:33:31.743Z,64.30
2019-03-15T16:35:10.632Z,64.20
2019-03-15T16:36:46.017Z,64.20
2019-03-15T16:38:21.497Z,64.20
2019-03-15T16:39:56.851Z,64.20
2019-03-15T16:41:32.232Z,64.00
2019-03-15T16:43:07.631Z,64.10
2019-03-15T16:44:43.007Z,64.00
2019-03-15T16:46:18.393Z,64.00
2019-03-15T16:47:53.849Z,64.00
2019-03-15T16:49:29.483Z,63.70
2019-03-15T16:51:18.716Z,63.70
2019-03-15T16:52:41.961Z,63.70
2019-03-15T16:54:17.325Z,63.60
2019-03-15T16:55:52.698Z,63.60
2019-03-15T16:57:28.074Z,63.50
2019-03-15T16:59:03.456Z,63.50
2019-03-15T17:00:39.082Z,63.40
2019-03-15T17:02:14.466Z,63.40
2019-03-15T17:03:49.864Z,63.40
2019-03-15T17:05:26.276Z,63.50
2019-03-15T17:07:01.658Z,63.50
2019-03-15T17:08:37.044Z,63.50
2019-03-15T17:10:19.903Z,63.30
2019-03-15T17:11:56.080Z,63.30
2019-03-15T17:13:31.467Z,63.90
2019-03-15T17:15:11.584Z,63.10
2019-03-15T17:16:47.929Z,63.10
2019-03-15T17:18:24.281Z,63.00
2019-03-15T17:20:00.624Z,62.90
2019-03-15T17:21:35.999Z,62.90
2019-03-15T17:23:12.339Z,62.80
2019-03-15T17:24:47.982Z,62.80
2019-03-15T17:26:23.611Z,62.80
2019-03-15T17:27:58.988Z,62.80
2019-03-15T17:29:34.367Z,62.80
2019-03-15T17:31:10.462Z,62.90
2019-03-15T17:32:45.966Z,62.90
2019-03-15T17:34:21.354Z,63.10
2019-03-15T17:35:56.740Z,63.30
2019-03-15T17:37:32.362Z,63.40
2019-03-15T17:39:08.230Z,63.40
2019-03-15T17:40:43.606Z,63.80
2019-03-15T17:42:19.242Z,64.00
2019-03-15T17:43:54.633Z,64.10
2019-03-15T17:45:30.013Z,64.30
2019-03-15T17:47:05.386Z,64.30
2019-03-15T17:48:40.768Z,64.50
2019-03-15T17:50:20.429Z,64.60
2019-03-15T17:51:56.883Z,64.70
2019-03-15T17:53:32.262Z,64.70
2019-03-15T17:55:08.476Z,64.70
2019-03-15T17:56:43.856Z,64.80
2019-03-15T17:58:19.301Z,64.70
2019-03-15T18:00:17.938Z,64.70
2019-03-15T18:01:53.312Z,64.70
2019-03-15T18:03:28.695Z,64.70
2019-03-15T18:05:04.524Z,64.60
2019-03-15T18:06:39.904Z,64.50
2019-03-15T18:08:15.284Z,64.50
2019-03-15T18:09:50.664Z,64.30
2019-03-15T18:11:26.410Z,64.30
2019-03-15T18:13:01.788Z,64.30
2019-03-15T18:14:37.161Z,64.20
2019-03-15T18:16:12.795Z,64.30
2019-03-15T18:17:48.178Z,64.50
2019-03-15T18:19:23.563Z,64.70
2019-03-15T18:20:58.943Z,64.80
2019-03-15T18:22:34.560Z,64.50
2019-03-15T18:24:09.942Z,65.70
2019-03-15T18:25:45.443Z,66.00
2019-03-15T18:27:21.032Z,65.10
2019-03-15T18:28:57.529Z,64.50
2019-03-15T18:30:32.914Z,64.10
2019-03-15T18:32:08.537Z,63.80
2019-03-15T18:33:43.918Z,63.70
2019-03-15T18:35:32.598Z,63.50
2019-03-15T18:36:56.371Z,63.40
2019-03-15T18:38:31.750Z,63.30
2019-03-15T18:40:15.962Z,63.20
2019-03-15T18:41:51.343Z,63.30
2019-03-15T18:43:27.001Z,63.40
2019-03-15T18:45:02.644Z,63.60
2019-03-15T18:46:38.320Z,63.90
2019-03-15T18:48:13.722Z,64.10
2019-03-15T18:49:49.359Z,64.40
2019-03-15T18:51:24.735Z,64.70
2019-03-15T18:53:00.107Z,65.80
2019-03-15T18:54:37.935Z,65.40
2019-03-15T18:56:12.563Z,65.60
2019-03-15T18:57:48.200Z,66.10
2019-03-15T18:59:24.813Z,66.30
2019-03-15T19:01:00.763Z,66.40
2019-03-15T19:02:36.396Z,66.80
2019-03-15T19:04:11.772Z,66.90
2019-03-15T19:05:47.166Z,67.00
2019-03-15T19:07:22.541Z,67.40
2019-03-15T19:08:57.920Z,67.50
2019-03-15T19:10:33.378Z,67.80
2019-03-15T19:12:09.015Z,68.00
2019-03-15T19:13:44.402Z,68.30
2019-03-15T19:15:21.499Z,68.40
2019-03-15T19:16:56.867Z,68.60
2019-03-15T19:18:32.246Z,68.60
2019-03-15T19:20:11.511Z,68.60
2019-03-15T19:21:46.897Z,68.80
2019-03-15T19:23:22.270Z,68.80
2019-03-15T19:24:57.651Z,69.00
2019-03-15T19:26:33.024Z,69.10
2019-03-15T19:28:08.670Z,69.10
2019-03-15T19:29:53.792Z,69.30
2019-03-15T19:31:22.929Z,69.30
2019-03-15T19:32:58.306Z,69.40
2019-03-15T19:34:33.931Z,69.40
2019-03-15T19:36:09.325Z,69.50
2019-03-15T19:37:44.707Z,69.50
2019-03-15T19:39:20.085Z,70.40
2019-03-15T19:40:55.652Z,69.60
2019-03-15T19:42:31.948Z,69.60
2019-03-15T19:44:07.468Z,69.70
2019-03-15T19:45:42.922Z,69.80
2019-03-15T19:47:18.294Z,69.70
2019-03-15T19:48:54.126Z,69.90
2019-03-15T19:50:29.517Z,69.90
2019-03-15T19:52:04.957Z,69.80
2019-03-15T19:53:40.345Z,69.90
2019-03-15T19:55:16.635Z,70.60
2019-03-15T19:56:52.008Z,69.70
2019-03-15T19:58:27.639Z,69.70
2019-03-15T20:00:08.081Z,69.70
2019-03-15T20:01:41.693Z,69.60
2019-03-15T20:03:17.077Z,69.70
2019-03-15T20:04:52.476Z,69.70
2019-03-15T20:06:28.094Z,69.70
2019-03-15T20:08:03.468Z,69.50
2019-03-15T20:09:38.842Z,69.50
2019-03-15T20:11:14.235Z,69.40
2019-03-15T20:12:49.598Z,69.00
2019-03-15T20:14:25.067Z,68.00
2019-03-15T20:16:00.471Z,67.30
2019-03-15T20:17:36.171Z,67.20
2019-03-15T20:19:11.547Z,67.50
2019-03-15T20:20:46.954Z,67.80
2019-03-15T20:22:22.316Z,68.00
2019-03-15T20:23:57.694Z,67.70
2019-03-15T20:25:33.786Z,67.60
2019-03-15T20:27:09.273Z,67.30
2019-03-15T20:28:44.612Z,66.80
2019-03-15T20:30:26.616Z,66.50
2019-03-15T20:32:00.314Z,66.20
2019-03-15T20:33:35.692Z,66.00